createdAt,value
2023-05-02T00:00:37.932Z,98905.60
2023-05-02T00:03:24.138Z,98910.00
2023-05-02T00:06:00.968Z,98908.60
2023-05-02T00:08:37.544Z,98902.40
2023-05-02T00:11:14.550Z,98900.60
2023-05-02T00:13:50.915Z,98899.20
2023-05-02T00:16:27.439Z,98898.00
2023-05-02T00:19:03.895Z,98896.00
2023-05-02T00:21:40.421Z,98894.80
2023-05-02T00:24:16.883Z,98892.80
2023-05-02T00:26:53.519Z,98887.40
2023-05-02T00:29:30.150Z,98889.40
2023-05-02T00:32:06.972Z,98891.60
2023-05-02T00:34:43.359Z,98895.80
2023-05-02T00:37:20.153Z,98895.60
2023-05-02T00:39:56.504Z,98899.60
2023-05-02T00:42:36.197Z,98898.80
2023-05-02T00:45:14.402Z,98900.40
2023-05-02T00:47:50.773Z,98901.00
2023-05-02T00:50:30.225Z,98903.80
2023-05-02T00:53:08.283Z,98911.00
2023-05-02T00:55:44.778Z,98909.40
2023-05-02T00:58:22.910Z,98908.80
2023-05-02T01:01:23.311Z,98905.40
2023-05-02T01:04:23.114Z,98908.60
2023-05-02T01:07:42.446Z,98910.80
2023-05-02T01:10:37.491Z,98907.40
2023-05-02T01:13:22.256Z,98904.80
2023-05-02T01:16:04.717Z,98906.60
2023-05-02T01:18:45.061Z,98907.00
2023-05-02T01:21:21.558Z,98913.60
2023-05-02T01:24:15.718Z,98910.20
2023-05-02T01:27:24.196Z,98909.40
2023-05-02T01:30:04.606Z,98909.80
2023-05-02T01:32:45.072Z,98907.60
2023-05-02T01:35:24.312Z,98907.40
2023-05-02T01:38:03.808Z,98905.00
2023-05-02T01:40:43.246Z,98902.20
2023-05-02T01:43:22.688Z,98901.40
2023-05-02T01:46:02.087Z,98900.20
2023-05-02T01:48:40.206Z,98895.80
2023-05-02T01:51:19.146Z,98899.40
2023-05-02T01:53:57.709Z,98894.80
2023-05-02T01:56:37.917Z,98892.60
2023-05-02T01:59:19.833Z,98887.60
2023-05-02T02:01:57.675Z,98894.60
2023-05-02T02:04:36.276Z,98886.00
2023-05-02T02:07:17.630Z,98891.00
2023-05-02T02:09:54.406Z,98900.80
2023-05-02T02:12:37.883Z,98902.40
2023-05-02T02:15:26.478Z,98902.40
2023-05-02T02:18:11.633Z,98903.80
2023-05-02T02:20:51.999Z,98904.00
2023-05-02T02:23:34.302Z,98911.60
2023-05-02T02:26:11.699Z,98910.00
2023-05-02T02:28:49.251Z,98911.60
2023-05-02T02:31:26.397Z,98911.40
2023-05-02T02:34:03.616Z,98911.60
2023-05-02T02:36:49.337Z,98909.00
2023-05-02T02:39:45.500Z,98911.80
2023-05-02T02:42:35.289Z,98916.00
2023-05-02T02:45:31.265Z,98911.00
2023-05-02T02:48:28.071Z,98911.20
2023-05-02T02:51:16.121Z,98915.80
2023-05-02T02:54:25.933Z,98914.00
2023-05-02T02:57:26.081Z,98917.80
2023-05-02T03:00:13.267Z,98916.80
2023-05-02T03:02:53.309Z,98913.60
2023-05-02T03:05:30.529Z,98920.20
2023-05-02T03:08:07.657Z,98922.80
2023-05-02T03:10:44.050Z,98923.80
2023-05-02T03:13:20.510Z,98924.20
2023-05-02T03:16:42.832Z,98918.40
2023-05-02T03:19:21.692Z,98922.40
2023-05-02T03:21:58.556Z,98925.00
2023-05-02T03:24:34.920Z,98928.60
2023-05-02T03:27:12.391Z,98934.20
2023-05-02T03:29:49.880Z,98934.20
2023-05-02T03:32:26.947Z,98928.80
2023-05-02T03:35:04.044Z,98927.60
2023-05-02T03:37:41.415Z,98928.80
2023-05-02T03:40:21.836Z,98935.40
2023-05-02T03:42:58.571Z,98937.00
2023-05-02T03:45:37.480Z,98940.20
2023-05-02T03:48:13.932Z,98935.40
2023-05-02T03:50:51.097Z,98934.80
2023-05-02T03:53:28.030Z,98938.20
2023-05-02T03:56:08.103Z,98940.20
2023-05-02T03:58:51.030Z,98932.80
2023-05-02T04:01:28.527Z,98936.00
2023-05-02T04:04:06.532Z,98936.40
2023-05-02T04:06:47.509Z,98941.20
2023-05-02T04:09:25.536Z,98942.80
2023-05-02T04:12:18.109Z,98937.80
2023-05-02T04:14:57.715Z,98938.20
2023-05-02T04:17:39.098Z,98942.80
2023-05-02T04:20:18.533Z,98944.00
2023-05-02T04:22:58.503Z,98942.00
2023-05-02T04:25:35.743Z,98939.00
2023-05-02T04:28:13.258Z,98944.20
2023-05-02T04:30:50.027Z,98943.60
2023-05-02T04:33:28.629Z,98944.00
2023-05-02T04:36:05.716Z,98942.20
2023-05-02T04:38:43.123Z,98939.60
2023-05-02T04:41:21.626Z,98937.20
2023-05-02T04:44:03.836Z,98938.80
2023-05-02T04:46:40.580Z,98941.60
2023-05-02T04:49:16.926Z,98941.20
2023-05-02T04:51:53.781Z,98940.80
2023-05-02T04:54:31.328Z,98940.60
2023-05-02T04:57:08.251Z,98946.80
2023-05-02T04:59:46.991Z,98949.00
2023-05-02T05:02:23.448Z,98954.80
2023-05-02T05:05:02.207Z,98954.40
2023-05-02T05:07:38.665Z,98957.80
2023-05-02T05:10:16.001Z,98951.20
2023-05-02T05:12:55.167Z,98951.80
2023-05-02T05:15:31.740Z,98951.20
2023-05-02T05:18:10.257Z,98955.00
2023-05-02T05:20:46.904Z,98959.60
2023-05-02T05:23:23.468Z,98966.20
2023-05-02T05:26:00.018Z,98960.40
2023-05-02T05:28:36.612Z,98961.20
2023-05-02T05:31:17.207Z,98958.60
2023-05-02T05:33:56.640Z,98955.80
2023-05-02T05:36:33.775Z,98953.00
2023-05-02T05:39:12.150Z,98958.40
2023-05-02T05:41:50.307Z,98964.20
2023-05-02T05:44:27.078Z,98965.20
2023-05-02T05:47:03.608Z,98970.40
2023-05-02T05:49:40.142Z,98973.20
2023-05-02T05:52:19.459Z,98976.80
2023-05-02T05:54:58.245Z,98975.40
2023-05-02T05:57:36.398Z,98978.80
2023-05-02T06:00:18.158Z,98974.80
2023-05-02T06:02:56.234Z,98977.60
2023-05-02T06:05:37.284Z,98985.20
2023-05-02T06:08:13.671Z,98982.00
2023-05-02T06:10:50.689Z,98978.80
2023-05-02T06:13:27.382Z,98981.40
2023-05-02T06:16:09.105Z,98981.40
2023-05-02T06:18:45.388Z,98991.80
2023-05-02T06:21:23.555Z,98994.60
2023-05-02T06:24:00.038Z,98996.20
2023-05-02T06:26:36.509Z,98998.80
2023-05-02T06:29:12.852Z,99000.80
2023-05-02T06:31:51.216Z,99001.80
2023-05-02T06:34:27.619Z,99001.40
2023-05-02T06:37:04.093Z,99001.60
2023-05-02T06:39:42.747Z,98996.00
2023-05-02T06:42:19.003Z,98997.40
2023-05-02T06:44:56.110Z,98992.60
2023-05-02T06:47:32.653Z,99006.00
2023-05-02T06:50:11.746Z,99004.40
2023-05-02T06:52:48.049Z,99005.00
2023-05-02T06:55:24.479Z,99004.80
2023-05-02T06:58:01.028Z,99005.00
2023-05-02T07:00:37.467Z,99005.00
2023-05-02T07:03:13.965Z,99012.80
2023-05-02T07:05:50.353Z,99015.00
2023-05-02T07:08:28.456Z,99010.00
2023-05-02T07:11:05.091Z,99015.40
2023-05-02T07:13:41.362Z,99014.00
2023-05-02T07:16:17.854Z,99014.80
2023-05-02T07:18:54.110Z,99013.60
2023-05-02T07:21:30.806Z,99015.40
2023-05-02T07:24:08.001Z,99014.20
2023-05-02T07:26:44.208Z,99014.60
2023-05-02T07:29:20.657Z,99017.20
2023-05-02T07:31:57.123Z,99014.20
2023-05-02T07:34:33.420Z,99019.00
2023-05-02T07:37:09.819Z,99013.80
2023-05-02T07:39:46.379Z,99017.20
2023-05-02T07:42:22.662Z,99019.40
2023-05-02T07:44:59.206Z,99024.00
2023-05-02T07:47:38.928Z,99028.60
2023-05-02T07:50:17.119Z,99027.60
2023-05-02T07:52:53.545Z,99028.40
2023-05-02T07:55:31.464Z,99028.40
2023-05-02T07:58:08.067Z,99028.00
2023-05-02T08:00:44.586Z,99023.60
2023-05-02T08:03:21.221Z,99024.40
2023-05-02T08:05:57.983Z,99025.40
2023-05-02T08:08:34.404Z,99027.60
2023-05-02T08:11:10.848Z,99032.20
2023-05-02T08:13:47.374Z,99039.00
2023-05-02T08:16:24.406Z,99040.80
2023-05-02T08:19:00.774Z,99047.60
2023-05-02T08:21:37.270Z,99050.60
2023-05-02T08:24:13.857Z,99051.00
2023-05-02T08:26:50.905Z,99046.60
2023-05-02T08:29:28.036Z,99049.00
2023-05-02T08:32:07.937Z,99056.20
2023-05-02T08:34:45.170Z,99054.20
2023-05-02T08:37:22.345Z,99052.00
2023-05-02T08:39:59.762Z,99052.00
2023-05-02T08:42:39.552Z,99058.40
2023-05-02T08:45:31.036Z,99053.80
2023-05-02T08:48:17.032Z,99056.80
2023-05-02T08:50:56.454Z,99056.80
2023-05-02T08:53:36.466Z,99050.60
2023-05-02T08:56:16.956Z,99055.00
2023-05-02T08:58:56.009Z,99056.60
2023-05-02T09:01:46.533Z,99055.80
2023-05-02T09:04:30.667Z,99057.40
2023-05-02T09:07:08.736Z,99055.60
2023-05-02T09:09:47.244Z,99054.60
2023-05-02T09:12:30.003Z,99052.00
2023-05-02T09:15:24.183Z,99054.60
2023-05-02T09:18:03.166Z,99051.00
2023-05-02T09:20:46.538Z,99056.00
2023-05-02T09:23:35.940Z,99055.40
2023-05-02T09:26:28.836Z,99055.00
2023-05-02T09:29:08.450Z,99051.20
2023-05-02T09:31:56.365Z,99052.80
2023-05-02T09:34:34.980Z,99057.40
2023-05-02T09:37:13.765Z,99064.80
2023-05-02T09:40:12.620Z,99063.40
2023-05-02T09:42:49.879Z,99061.00
2023-05-02T09:45:31.450Z,99056.60
2023-05-02T09:48:10.110Z,99059.40
2023-05-02T09:50:48.229Z,99063.40
2023-05-02T09:53:30.429Z,99062.00
2023-05-02T09:56:11.606Z,99064.20
2023-05-02T09:58:51.372Z,99060.40
2023-05-02T10:01:29.531Z,99061.20
2023-05-02T10:04:11.453Z,99060.60
2023-05-02T10:06:51.835Z,99056.40
2023-05-02T10:09:32.815Z,99054.40
2023-05-02T10:12:11.304Z,99057.40
2023-05-02T10:15:00.155Z,99056.20
2023-05-02T10:17:49.569Z,99058.00
2023-05-02T10:20:37.355Z,99055.40
2023-05-02T10:23:16.378Z,99051.00
2023-05-02T10:25:54.542Z,99042.80
2023-05-02T10:28:33.424Z,99048.20
2023-05-02T10:31:13.252Z,99041.20
2023-05-02T10:33:57.361Z,99045.80
2023-05-02T10:36:37.512Z,99035.60
2023-05-02T10:39:17.305Z,99039.20
2023-05-02T10:41:59.471Z,99041.40
2023-05-02T10:44:46.321Z,99040.20
2023-05-02T10:47:30.545Z,99039.20
2023-05-02T10:50:10.476Z,99034.60
2023-05-02T10:52:47.512Z,99041.20
2023-05-02T10:55:26.989Z,99037.00
2023-05-02T10:58:27.204Z,99035.60
2023-05-02T11:01:42.240Z,99031.40
2023-05-02T11:04:19.884Z,99029.80
2023-05-02T11:07:23.320Z,99028.60
2023-05-02T11:10:30.155Z,99029.40
2023-05-02T11:13:07.098Z,99027.20
2023-05-02T11:16:02.711Z,99026.80
2023-05-02T11:19:05.390Z,99028.60
2023-05-02T11:21:42.236Z,99028.60
2023-05-02T11:24:44.904Z,99025.60
2023-05-02T11:27:47.906Z,99022.60
2023-05-02T11:30:43.946Z,99027.20
2023-05-02T11:33:24.483Z,99029.60
2023-05-02T11:36:01.335Z,99023.00
2023-05-02T11:38:43.367Z,99022.00
2023-05-02T11:41:20.190Z,99023.20
2023-05-02T11:44:08.858Z,99027.80
2023-05-02T11:46:48.115Z,99031.80
2023-05-02T11:49:25.059Z,99028.60
2023-05-02T11:52:04.457Z,99025.20
2023-05-02T11:54:41.413Z,99026.60
2023-05-02T11:57:18.115Z,99026.20
2023-05-02T12:00:01.818Z,99031.00
2023-05-02T12:02:48.970Z,99033.60
2023-05-02T12:05:34.361Z,99034.00
2023-05-02T12:08:21.958Z,99034.60
2023-05-02T12:11:00.443Z,99032.80
2023-05-02T12:13:45.540Z,99032.40
2023-05-02T12:16:24.150Z,99033.60
2023-05-02T12:19:01.725Z,99033.80
2023-05-02T12:21:38.788Z,99032.60
2023-05-02T12:24:15.539Z,99025.20
2023-05-02T12:27:09.833Z,99026.40
2023-05-02T12:29:50.290Z,99026.00
2023-05-02T12:32:38.267Z,99022.80
2023-05-02T12:35:27.653Z,99022.20
2023-05-02T12:38:17.825Z,99025.80
2023-05-02T12:40:58.652Z,99025.20
2023-05-02T12:43:49.771Z,99023.20
2023-05-02T12:46:25.193Z,99022.40
2023-05-02T12:49:12.648Z,99026.80
2023-05-02T12:52:00.341Z,99034.60
2023-05-02T12:54:37.429Z,99037.60
2023-05-02T12:57:26.075Z,99041.00
2023-05-02T13:00:03.535Z,99044.20
2023-05-02T13:02:43.332Z,99044.20
2023-05-02T13:05:24.953Z,99048.60
2023-05-02T13:08:02.519Z,99051.00
2023-05-02T13:10:39.722Z,99057.60
2023-05-02T13:13:16.936Z,99062.40
2023-05-02T13:15:54.199Z,99070.20
2023-05-02T13:18:31.207Z,99065.60
2023-05-02T13:21:08.043Z,99066.20
2023-05-02T13:23:45.942Z,99067.20
2023-05-02T13:26:23.313Z,99067.60
2023-05-02T13:29:00.280Z,99076.40
2023-05-02T13:31:39.640Z,99079.20
2023-05-02T13:34:16.170Z,99076.80
2023-05-02T13:36:52.742Z,99083.00
2023-05-02T13:39:29.671Z,99091.60
2023-05-02T13:42:06.775Z,99101.20
2023-05-02T13:44:43.887Z,99111.00
2023-05-02T13:47:21.652Z,99109.40
2023-05-02T13:49:58.871Z,99111.20
2023-05-02T13:52:35.651Z,99124.00
2023-05-02T13:55:13.685Z,99142.80
2023-05-02T13:57:51.015Z,99155.80
2023-05-02T14:00:29.287Z,99162.80
2023-05-02T14:03:07.185Z,99167.40
2023-05-02T14:05:44.672Z,99168.60
2023-05-02T14:08:21.642Z,99169.00
2023-05-02T14:10:58.664Z,99186.60
2023-05-02T14:13:35.063Z,99198.40
2023-05-02T14:16:12.531Z,99182.80
2023-05-02T14:18:50.166Z,99183.80
2023-05-02T14:21:27.393Z,99179.00
2023-05-02T14:24:04.406Z,99186.80
2023-05-02T14:26:41.151Z,99181.40
2023-05-02T14:29:18.603Z,99171.20
2023-05-02T14:31:55.724Z,99169.00
2023-05-02T14:34:32.866Z,99155.00
2023-05-02T14:37:11.179Z,99150.60
2023-05-02T14:39:50.829Z,99153.60
2023-05-02T14:42:28.876Z,99155.60
2023-05-02T14:45:06.654Z,99174.80
2023-05-02T14:47:43.877Z,99192.80
2023-05-02T14:50:21.818Z,99201.00
2023-05-02T14:52:59.778Z,99189.60
2023-05-02T14:55:41.789Z,99178.80
2023-05-02T14:58:20.756Z,99179.60
2023-05-02T15:01:00.807Z,99173.80
2023-05-02T15:03:52.362Z,99175.20
2023-05-02T15:06:37.353Z,99163.80
2023-05-02T15:09:14.251Z,99142.00
2023-05-02T15:11:54.025Z,99138.00
2023-05-02T15:14:30.920Z,99075.00
2023-05-02T15:17:08.068Z,99046.00
2023-05-02T15:19:44.883Z,99037.60
2023-05-02T15:22:24.293Z,99068.60
2023-05-02T15:25:01.391Z,99091.00
2023-05-02T15:27:40.218Z,99112.80
2023-05-02T15:30:19.537Z,99117.80
2023-05-02T15:32:59.553Z,99116.40
2023-05-02T15:35:36.975Z,99115.40
2023-05-02T15:38:14.297Z,99139.60
2023-05-02T15:41:00.263Z,99159.60
2023-05-02T15:43:37.477Z,99178.40
2023-05-02T15:46:14.683Z,99200.40
2023-05-02T15:48:51.539Z,99211.00
2023-05-02T15:51:28.189Z,99215.80
2023-05-02T15:54:07.037Z,99221.00
2023-05-02T15:56:44.614Z,99230.20
2023-05-02T15:59:21.569Z,99235.00
2023-05-02T16:01:58.336Z,99240.00
2023-05-02T16:04:35.114Z,99238.40
2023-05-02T16:07:11.758Z,99239.40
2023-05-02T16:09:48.361Z,99237.00
2023-05-02T16:12:26.337Z,99238.20
2023-05-02T16:15:03.964Z,99236.60
2023-05-02T16:17:42.979Z,99238.00
2023-05-02T16:20:21.202Z,99236.20
2023-05-02T16:22:57.904Z,99236.80
2023-05-02T16:25:36.124Z,99238.60
2023-05-02T16:28:15.940Z,99234.80
2023-05-02T16:30:53.505Z,99239.00
2023-05-02T16:33:31.371Z,99243.40
2023-05-02T16:36:11.725Z,99249.00
2023-05-02T16:38:49.310Z,99258.60
2023-05-02T16:41:26.866Z,99265.80
2023-05-02T16:44:03.887Z,99273.20
2023-05-02T16:46:41.546Z,99276.60
2023-05-02T16:49:18.528Z,99283.00
2023-05-02T16:51:56.191Z,99290.80
2023-05-02T16:54:33.042Z,99299.60
2023-05-02T16:57:10.896Z,99309.80
2023-05-02T16:59:48.592Z,99317.60
2023-05-02T17:02:25.866Z,99326.40
2023-05-02T17:05:02.524Z,99339.80
2023-05-02T17:07:40.131Z,99340.20
2023-05-02T17:10:19.515Z,99345.80
2023-05-02T17:13:01.900Z,99350.80
2023-05-02T17:15:42.819Z,99354.20
2023-05-02T17:18:19.748Z,99362.60
2023-05-02T17:20:58.077Z,99370.00
2023-05-02T17:23:37.414Z,99369.20
2023-05-02T17:26:15.698Z,99375.00
2023-05-02T17:28:53.755Z,99364.60
2023-05-02T17:31:30.928Z,99365.00
2023-05-02T17:34:08.800Z,99369.20
2023-05-02T17:36:46.453Z,99369.80
2023-05-02T17:39:25.466Z,99367.60
2023-05-02T17:42:02.741Z,99366.40
2023-05-02T17:44:42.375Z,99365.20
2023-05-02T17:47:20.180Z,99365.60
2023-05-02T17:50:00.164Z,99372.00
2023-05-02T17:52:38.948Z,99373.20
2023-05-02T17:55:19.805Z,99377.60
